createdAt,value
2024-02-28T00:02:10.529Z,17.43
2024-02-28T00:04:37.651Z,19.23
2024-02-28T00:07:04.615Z,20.70
2024-02-28T00:12:37.121Z,17.53
2024-02-28T00:15:06.020Z,15.27
2024-02-28T00:17:35.630Z,18.23
2024-02-28T00:20:05.804Z,17.60
2024-02-28T00:22:33.244Z,16.23
2024-02-28T00:25:02.093Z,16.30
2024-02-28T00:27:29.113Z,16.40
2024-02-28T00:29:59.775Z,13.67
2024-02-28T00:32:26.961Z,20.10
2024-02-28T00:34:56.872Z,17.60
2024-02-28T00:37:24.008Z,16.27
2024-02-28T00:39:51.172Z,22.63
2024-02-28T00:42:22.597Z,21.80
2024-02-28T00:44:56.244Z,22.57
2024-02-28T00:47:23.225Z,18.60
2024-02-28T00:49:50.425Z,23.07
2024-02-28T00:52:17.597Z,21.13
2024-02-28T00:54:44.703Z,26.43
2024-02-28T00:57:15.734Z,20.73
2024-02-28T00:59:46.385Z,17.93
2024-02-28T01:02:13.497Z,16.73
2024-02-28T01:04:41.470Z,21.53
2024-02-28T01:07:08.451Z,22.77
2024-02-28T01:09:40.004Z,27.90
2024-02-28T01:12:07.676Z,24.37
2024-02-28T01:14:38.120Z,22.90
2024-02-28T01:17:08.614Z,18.97
2024-02-28T01:19:38.189Z,22.63
2024-02-28T01:22:08.555Z,18.30
2024-02-28T01:24:38.528Z,18.20
2024-02-28T01:27:05.488Z,19.47
2024-02-28T01:29:32.766Z,26.33
2024-02-28T01:31:59.818Z,25.70
2024-02-28T01:34:30.156Z,23.27
2024-02-28T01:36:57.438Z,22.50
2024-02-28T01:39:27.958Z,17.93
2024-02-28T01:41:59.910Z,24.13
2024-02-28T01:44:27.032Z,23.50
2024-02-28T01:46:56.001Z,22.77
2024-02-28T01:49:23.634Z,19.90
2024-02-28T01:51:53.623Z,23.53
2024-02-28T01:54:22.324Z,21.90
2024-02-28T01:56:49.369Z,24.20
2024-02-28T01:59:19.908Z,19.97
2024-02-28T02:01:47.348Z,20.57
2024-02-28T02:04:14.531Z,21.40
2024-02-28T02:06:49.121Z,21.47
2024-02-28T02:09:20.341Z,17.63
2024-02-28T02:11:49.439Z,24.23
2024-02-28T02:14:18.241Z,22.80
2024-02-28T02:20:16.431Z,26.13
2024-02-28T02:22:44.967Z,25.23
2024-02-28T02:25:14.155Z,26.60
2024-02-28T02:27:41.417Z,23.20
2024-02-28T02:30:09.411Z,20.30
2024-02-28T02:32:36.451Z,24.50
2024-02-28T02:35:03.478Z,24.90
2024-02-28T02:37:30.544Z,21.93
2024-02-28T02:40:01.317Z,25.03
2024-02-28T02:42:28.444Z,21.17
2024-02-28T02:45:05.779Z,23.13
2024-02-28T02:47:34.180Z,19.77
2024-02-28T02:50:01.333Z,24.17
2024-02-28T02:52:30.405Z,21.23
2024-02-28T02:54:58.905Z,22.53
2024-02-28T02:57:26.074Z,18.10
2024-02-28T02:59:53.600Z,19.80
2024-02-28T03:02:20.768Z,14.73
2024-02-28T03:04:47.641Z,21.77
2024-02-28T03:07:16.968Z,17.43
2024-02-28T03:09:43.912Z,16.80
2024-02-28T03:12:12.874Z,18.23
2024-02-28T03:14:39.863Z,18.20
2024-02-28T03:17:07.023Z,16.13
2024-02-28T03:19:34.168Z,17.27
2024-02-28T03:22:01.320Z,14.63
2024-02-28T03:24:30.734Z,16.00
2024-02-28T03:26:57.841Z,20.67
2024-02-28T03:29:26.553Z,19.80
2024-02-28T03:31:55.222Z,15.07
2024-02-28T03:34:22.188Z,16.80
2024-02-28T03:36:49.071Z,18.37
2024-02-28T03:39:16.330Z,17.73
2024-02-28T03:41:43.276Z,18.03
2024-02-28T03:44:10.340Z,19.40
2024-02-28T03:46:41.237Z,20.03
2024-02-28T03:49:11.211Z,21.67
2024-02-28T03:51:42.994Z,18.80
2024-02-28T03:54:10.273Z,21.33
2024-02-28T03:56:37.465Z,22.17
2024-02-28T03:59:04.699Z,19.57
2024-02-28T04:01:32.228Z,17.37
2024-02-28T04:04:00.798Z,20.90
2024-02-28T04:06:33.448Z,17.57
2024-02-28T04:09:00.301Z,17.07
2024-02-28T04:11:27.110Z,15.70
2024-02-28T04:13:55.617Z,15.33
2024-02-28T04:16:22.881Z,22.20
2024-02-28T04:18:50.066Z,19.17
2024-02-28T04:21:20.774Z,22.03
2024-02-28T04:23:50.345Z,16.43
2024-02-28T04:26:19.735Z,22.00
2024-02-28T04:28:47.045Z,16.50
2024-02-28T04:31:14.335Z,18.37
2024-02-28T04:33:44.751Z,19.27
2024-02-28T04:36:11.615Z,18.33
2024-02-28T04:38:40.344Z,21.30
2024-02-28T04:41:07.503Z,17.53
2024-02-28T04:43:34.589Z,16.87
2024-02-28T04:46:03.145Z,18.17
2024-02-28T04:48:32.041Z,14.27
2024-02-28T04:51:00.468Z,16.30
2024-02-28T04:53:27.503Z,14.10
2024-02-28T04:56:01.550Z,15.10
2024-02-28T04:58:32.049Z,15.40
2024-02-28T05:01:02.036Z,16.03
2024-02-28T05:03:29.401Z,17.63
2024-02-28T05:06:03.856Z,15.00
2024-02-28T05:08:30.934Z,15.07
2024-02-28T05:11:00.035Z,14.10
2024-02-28T05:13:27.298Z,16.67
2024-02-28T05:15:54.158Z,17.70
2024-02-28T05:18:21.215Z,14.00
2024-02-28T05:20:48.210Z,17.73
2024-02-28T05:23:15.056Z,12.30
2024-02-28T05:25:42.175Z,12.50
2024-02-28T05:28:10.703Z,15.33
2024-02-28T05:30:42.842Z,17.60
2024-02-28T05:33:11.336Z,14.87
2024-02-28T05:35:38.976Z,12.63
2024-02-28T05:38:08.354Z,13.53
2024-02-28T05:40:35.462Z,14.07
2024-02-28T05:43:02.394Z,18.17
2024-02-28T05:45:30.794Z,20.53
2024-02-28T05:47:57.693Z,16.70
2024-02-28T05:50:24.458Z,16.20
2024-02-28T05:52:51.191Z,18.47
2024-02-28T05:55:18.795Z,16.20
2024-02-28T05:57:45.749Z,17.70
2024-02-28T06:00:13.744Z,16.10
2024-02-28T06:02:41.916Z,23.20
2024-02-28T06:05:09.295Z,22.10
2024-02-28T06:07:36.519Z,17.67
2024-02-28T06:10:07.267Z,17.10
2024-02-28T06:12:34.209Z,17.63
2024-02-28T06:15:00.946Z,16.63
2024-02-28T06:17:27.958Z,16.80
2024-02-28T06:19:56.702Z,19.00
2024-02-28T06:22:23.676Z,17.20
2024-02-28T06:24:50.584Z,15.73
2024-02-28T06:27:17.662Z,15.73
2024-02-28T06:29:50.008Z,17.43
2024-02-28T06:32:17.042Z,13.70
2024-02-28T06:34:44.186Z,16.13
2024-02-28T06:37:12.966Z,13.53
2024-02-28T06:39:39.733Z,13.97
2024-02-28T06:42:06.846Z,14.13
2024-02-28T06:44:33.730Z,13.17
2024-02-28T06:47:00.511Z,14.07
2024-02-28T06:49:32.209Z,10.60
2024-02-28T06:52:06.434Z,18.03
2024-02-28T06:54:34.954Z,12.30
2024-02-28T06:57:01.812Z,13.40
2024-02-28T06:59:28.973Z,13.33
2024-02-28T07:01:56.764Z,12.37
2024-02-28T07:04:31.807Z,14.03
2024-02-28T07:06:59.206Z,11.23
2024-02-28T07:09:26.207Z,11.10
2024-02-28T07:11:55.054Z,11.70
2024-02-28T07:14:22.149Z,12.47
2024-02-28T07:16:48.883Z,12.40
2024-02-28T07:19:15.732Z,15.20
2024-02-28T07:21:42.549Z,11.47
2024-02-28T07:24:09.303Z,14.50
2024-02-28T07:26:36.279Z,15.37
2024-02-28T07:29:04.461Z,16.17
2024-02-28T07:31:31.263Z,14.80
2024-02-28T07:33:58.077Z,13.07
2024-02-28T07:36:24.920Z,13.93
2024-02-28T07:38:51.766Z,18.80
2024-02-28T07:41:18.568Z,14.10
2024-02-28T07:43:45.348Z,17.07
2024-02-28T07:51:55.899Z,16.23
2024-02-28T07:54:22.790Z,10.70
2024-02-28T07:56:50.141Z,11.40
2024-02-28T07:59:17.121Z,14.23
2024-02-28T08:01:45.367Z,18.00
2024-02-28T08:04:12.320Z,17.03
2024-02-28T08:06:41.300Z,16.53
2024-02-28T08:09:09.661Z,17.30
2024-02-28T08:11:37.766Z,15.30
2024-02-28T08:14:04.509Z,19.80
2024-02-28T08:16:32.666Z,18.10
2024-02-28T08:19:00.981Z,18.37
2024-02-28T08:21:27.835Z,17.57
2024-02-28T08:23:54.615Z,17.97
2024-02-28T08:26:21.388Z,20.80
2024-02-28T08:28:48.263Z,18.27
2024-02-28T08:31:15.175Z,24.50
2024-02-28T08:33:42.810Z,21.67
2024-02-28T08:36:11.092Z,18.67
2024-02-28T08:38:37.964Z,21.83
2024-02-28T08:41:04.916Z,22.83
2024-02-28T08:43:31.809Z,26.60
2024-02-28T08:45:58.864Z,22.67
2024-02-28T08:48:25.660Z,18.40
2024-02-28T08:50:52.502Z,23.60
2024-02-28T08:53:20.825Z,24.70
2024-02-28T08:55:47.684Z,27.37
2024-02-28T08:58:14.615Z,29.27
2024-02-28T09:00:41.645Z,31.07
2024-02-28T09:03:08.461Z,27.50
2024-02-28T09:05:35.220Z,25.50
2024-02-28T09:08:02.017Z,30.73
2024-02-28T09:10:30.052Z,26.07
2024-02-28T09:12:57.062Z,27.37
2024-02-28T09:15:23.907Z,27.90
2024-02-28T09:17:51.057Z,27.27
2024-02-28T09:20:17.954Z,25.20
2024-02-28T09:22:44.769Z,30.37
2024-02-28T09:25:11.716Z,33.90
2024-02-28T09:27:39.913Z,30.30
2024-02-28T09:30:08.174Z,29.73
2024-02-28T09:32:34.872Z,30.53
2024-02-28T09:35:03.324Z,29.83
2024-02-28T09:37:30.183Z,30.00
2024-02-28T09:39:57.049Z,27.97
2024-02-28T09:42:23.936Z,38.33
2024-02-28T09:44:52.290Z,25.57
2024-02-28T09:47:19.179Z,27.30
2024-02-28T09:49:50.030Z,27.70
2024-02-28T09:52:16.885Z,26.90
2024-02-28T09:54:43.765Z,28.10
2024-02-28T09:57:12.526Z,27.93
2024-02-28T09:59:51.621Z,25.97
2024-02-28T10:02:24.206Z,30.00
2024-02-28T10:04:51.150Z,27.37
2024-02-28T10:07:18.876Z,28.80
2024-02-28T10:09:45.600Z,28.73
2024-02-28T10:12:12.337Z,31.23
2024-02-28T10:14:39.573Z,30.30
2024-02-28T10:17:06.644Z,29.10
2024-02-28T10:19:34.925Z,26.67
2024-02-28T10:22:02.004Z,27.37
2024-02-28T10:24:29.049Z,29.40
2024-02-28T10:26:56.520Z,27.77
2024-02-28T10:29:25.016Z,26.13
2024-02-28T10:31:51.920Z,28.27
2024-02-28T10:34:19.315Z,31.43
2024-02-28T10:36:48.082Z,30.40
2024-02-28T10:39:15.559Z,27.07
2024-02-28T10:41:43.268Z,28.83
2024-02-28T10:44:10.299Z,26.53
2024-02-28T10:46:39.690Z,32.43
2024-02-28T10:49:07.121Z,28.20
2024-02-28T10:51:36.789Z,30.20
2024-02-28T10:54:16.812Z,32.40
2024-02-28T10:56:45.023Z,30.47
2024-02-28T10:59:16.376Z,32.00
2024-02-28T11:01:45.108Z,32.73
2024-02-28T11:04:14.116Z,30.87
2024-02-28T11:06:50.025Z,30.80
2024-02-28T11:09:22.212Z,29.60
2024-02-28T11:11:49.765Z,30.77
2024-02-28T11:14:17.142Z,31.83
2024-02-28T11:16:44.991Z,29.87
2024-02-28T11:19:20.703Z,30.50
2024-02-28T11:21:54.526Z,32.27
2024-02-28T11:24:24.032Z,32.63
2024-02-28T11:26:51.212Z,31.33
2024-02-28T11:29:22.547Z,34.40
2024-02-28T11:31:49.463Z,36.57
2024-02-28T11:34:16.474Z,31.13
2024-02-28T11:36:43.457Z,33.90
2024-02-28T11:39:10.387Z,29.53
2024-02-28T11:41:38.596Z,31.07
2024-02-28T11:44:05.706Z,34.47
2024-02-28T11:46:33.425Z,31.60
2024-02-28T11:49:01.833Z,35.30
2024-02-28T11:51:28.871Z,38.83
2024-02-28T11:53:56.002Z,32.30
2024-02-28T11:56:23.183Z,33.67
2024-02-28T11:58:55.019Z,35.50
2024-02-28T12:01:36.486Z,29.00
2024-02-28T12:04:04.296Z,26.60
2024-02-28T12:06:31.181Z,29.13
2024-02-28T12:08:59.031Z,28.73
2024-02-28T12:11:26.074Z,27.40
2024-02-28T12:13:59.530Z,27.83
2024-02-28T12:16:26.772Z,26.63
2024-02-28T12:18:54.093Z,24.50
2024-02-28T12:21:21.434Z,30.93
2024-02-28T12:23:48.799Z,26.33
2024-02-28T12:26:15.754Z,31.93
2024-02-28T12:28:48.438Z,33.97
2024-02-28T12:31:17.304Z,30.47
2024-02-28T12:33:44.318Z,31.30
2024-02-28T12:36:11.153Z,28.93
2024-02-28T12:38:38.122Z,28.57
2024-02-28T12:41:05.216Z,26.37
2024-02-28T12:43:32.432Z,31.47
2024-02-28T12:46:01.410Z,27.63
2024-02-28T12:48:33.924Z,27.73
2024-02-28T12:51:01.190Z,25.00
2024-02-28T12:53:28.132Z,29.33
2024-02-28T12:55:55.217Z,27.13
2024-02-28T12:58:22.287Z,27.00
2024-02-28T13:00:54.269Z,27.87
2024-02-28T13:03:23.841Z,28.17
2024-02-28T13:05:52.319Z,33.07
2024-02-28T13:08:19.459Z,30.77
2024-02-28T13:10:46.667Z,29.10
2024-02-28T13:13:13.559Z,24.03
2024-02-28T13:15:41.792Z,32.23
2024-02-28T13:18:09.069Z,33.60
2024-02-28T13:20:36.055Z,31.60
2024-02-28T13:23:04.857Z,33.37
2024-02-28T13:25:34.675Z,28.30
2024-02-28T13:28:01.724Z,29.10
2024-02-28T13:30:28.933Z,30.50
2024-02-28T13:32:57.926Z,30.60
2024-02-28T13:35:30.739Z,28.83
2024-02-28T13:38:07.589Z,27.10
2024-02-28T13:40:45.296Z,32.40
2024-02-28T13:43:14.338Z,33.67
2024-02-28T13:45:47.855Z,30.57
2024-02-28T13:48:33.148Z,36.03
2024-02-28T13:51:01.174Z,26.97
2024-02-28T13:54:01.512Z,31.30
2024-02-28T13:56:49.072Z,28.90
2024-02-28T13:59:17.218Z,28.67
2024-02-28T14:01:52.740Z,31.47
2024-02-28T14:04:22.388Z,31.63
2024-02-28T14:06:58.550Z,31.63
2024-02-28T14:09:30.095Z,31.03
2024-02-28T14:14:54.251Z,28.87
2024-02-28T14:17:22.029Z,29.50
2024-02-28T14:20:02.425Z,32.37
2024-02-28T14:25:31.930Z,31.53
2024-02-28T14:28:30.043Z,33.20
2024-02-28T14:31:21.695Z,29.67
2024-02-28T14:33:49.076Z,29.20
2024-02-28T14:36:20.166Z,36.93
2024-02-28T14:41:48.526Z,32.47
2024-02-28T14:44:39.854Z,28.97
2024-02-28T14:51:22.311Z,33.00
2024-02-28T14:54:52.935Z,27.07
2024-02-28T15:00:42.399Z,25.77
2024-02-28T15:03:41.252Z,27.53
2024-02-28T15:06:17.961Z,30.40
2024-02-28T15:08:57.100Z,26.07
2024-02-28T15:11:32.294Z,31.67
2024-02-28T15:14:08.428Z,32.57
2024-02-28T15:16:52.892Z,32.83
2024-02-28T15:19:48.019Z,37.13
2024-02-28T15:22:18.107Z,29.77
2024-02-28T15:24:49.071Z,33.23
2024-02-28T15:27:19.043Z,27.90
2024-02-28T15:30:00.002Z,22.83
2024-02-28T15:32:30.624Z,32.73
2024-02-28T15:35:15.048Z,29.77
2024-02-28T15:37:42.279Z,33.17
2024-02-28T15:40:10.739Z,26.20
2024-02-28T15:42:37.763Z,35.10
2024-02-28T15:45:05.581Z,32.47
2024-02-28T15:47:35.770Z,33.37
2024-02-28T15:50:08.107Z,31.40
2024-02-28T15:52:37.503Z,31.27
2024-02-28T15:55:09.460Z,31.70
2024-02-28T15:57:36.327Z,31.93
2024-02-28T16:00:03.487Z,28.97
2024-02-28T16:02:30.279Z,35.50
2024-02-28T16:04:57.077Z,27.30
2024-02-28T16:07:25.392Z,33.17
2024-02-28T16:09:52.284Z,30.27
2024-02-28T16:12:19.246Z,29.67
2024-02-28T16:14:46.110Z,29.70
2024-02-28T16:17:12.987Z,34.33
2024-02-28T16:19:54.137Z,34.40
2024-02-28T16:22:20.964Z,33.60
2024-02-28T16:24:50.916Z,34.43
2024-02-28T16:27:18.985Z,32.30
2024-02-28T16:30:11.763Z,31.83
2024-02-28T16:32:40.881Z,30.77
2024-02-28T16:35:09.034Z,31.00
2024-02-28T16:41:01.807Z,31.20
2024-02-28T16:43:28.695Z,32.53
2024-02-28T16:49:35.413Z,28.43
2024-02-28T16:55:34.030Z,29.90
2024-02-28T16:58:44.546Z,24.70
2024-02-28T17:01:16.153Z,27.17
2024-02-28T17:10:36.116Z,25.77
2024-02-28T17:13:04.733Z,29.23
2024-02-28T17:15:31.629Z,32.40
2024-02-28T17:17:58.575Z,31.07
2024-02-28T17:20:25.482Z,38.30
2024-02-28T17:22:52.326Z,25.93
2024-02-28T17:25:19.447Z,26.73
2024-02-28T17:27:46.919Z,36.33
2024-02-28T17:30:15.596Z,37.73
2024-02-28T17:32:42.626Z,27.87
2024-02-28T17:35:10.178Z,30.57
2024-02-28T17:37:37.046Z,28.07
2024-02-28T17:40:04.508Z,34.37
2024-02-28T17:42:31.701Z,31.30
2024-02-28T17:44:58.634Z,27.47
2024-02-28T17:47:27.369Z,22.10
2024-02-28T17:49:54.227Z,34.17
2024-02-28T17:52:21.169Z,30.50
2024-02-28T17:54:48.041Z,30.27
2024-02-28T17:57:14.995Z,28.30
2024-02-28T17:59:41.816Z,29.73
2024-02-28T18:02:08.750Z,31.70
2024-02-28T18:04:36.941Z,28.37
2024-02-28T18:07:03.910Z,31.23
2024-02-28T18:09:30.690Z,33.50
2024-02-28T18:11:57.652Z,30.90
2024-02-28T18:14:24.568Z,43.60
2024-02-28T18:16:51.297Z,22.97
2024-02-28T18:19:18.062Z,33.80
2024-02-28T18:21:46.334Z,28.63
2024-02-28T18:24:13.767Z,28.60
2024-02-28T18:26:40.802Z,33.40
2024-02-28T18:29:07.625Z,37.20
2024-02-28T18:31:34.508Z,29.13
2024-02-28T18:34:01.607Z,33.03
2024-02-28T18:36:28.936Z,30.83
2024-02-28T18:38:58.228Z,35.00
2024-02-28T18:41:25.149Z,39.00
2024-02-28T18:43:52.064Z,34.13
2024-02-28T18:46:18.988Z,31.10
2024-02-28T18:48:45.837Z,29.23
2024-02-28T18:51:12.649Z,29.73
2024-02-28T18:53:39.409Z,34.00
2024-02-28T18:56:07.843Z,31.10
2024-02-28T18:58:34.701Z,30.30
2024-02-28T19:01:01.586Z,36.17
2024-02-28T19:03:28.610Z,28.90
2024-02-28T19:05:55.444Z,32.57
2024-02-28T19:08:22.164Z,38.83
2024-02-28T19:10:48.930Z,29.63
2024-02-28T19:13:17.130Z,38.70
2024-02-28T19:15:44.148Z,37.80
2024-02-28T19:18:10.935Z,43.10
2024-02-28T19:20:37.726Z,37.13
2024-02-28T19:23:04.890Z,34.50
2024-02-28T19:25:31.799Z,31.00
2024-02-28T19:27:58.594Z,35.77
2024-02-28T19:30:26.928Z,38.20
2024-02-28T19:32:53.719Z,30.13
2024-02-28T19:35:20.623Z,30.67
2024-02-28T19:37:47.778Z,31.60
2024-02-28T19:40:14.708Z,36.73
2024-02-28T19:42:41.620Z,32.77
2024-02-28T19:45:09.325Z,36.00
2024-02-28T19:47:38.534Z,36.27
2024-02-28T19:50:06.171Z,27.67
2024-02-28T19:52:32.968Z,33.03
2024-02-28T19:55:00.060Z,33.80
2024-02-28T19:57:27.126Z,36.03
2024-02-28T19:59:54.100Z,30.97
2024-02-28T20:02:20.837Z,36.07
2024-02-28T20:04:49.122Z,40.03
2024-02-28T20:07:16.081Z,37.30
2024-02-28T20:09:42.946Z,37.97
2024-02-28T20:12:10.195Z,37.67
2024-02-28T20:14:37.058Z,43.80
2024-02-28T20:17:06.962Z,27.63
2024-02-28T20:19:33.944Z,41.90
2024-02-28T20:22:02.081Z,36.60
2024-02-28T20:24:28.839Z,37.43
2024-02-28T20:26:55.836Z,35.10
2024-02-28T20:29:22.704Z,41.30
2024-02-28T20:31:51.456Z,39.47
2024-02-28T20:34:18.340Z,42.90
2024-02-28T20:36:45.208Z,39.80
2024-02-28T20:39:13.715Z,30.43
2024-02-28T20:41:40.736Z,34.17
2024-02-28T20:44:07.524Z,42.53
2024-02-28T20:46:35.546Z,38.73
2024-02-28T20:49:02.560Z,38.00
2024-02-28T20:51:29.595Z,36.70
2024-02-28T20:53:56.706Z,44.20
2024-02-28T20:56:25.882Z,39.93
2024-02-28T20:58:53.718Z,31.27
2024-02-28T21:01:20.780Z,45.83
2024-02-28T21:03:47.574Z,33.50
2024-02-28T21:06:14.521Z,33.70
2024-02-28T21:08:41.519Z,33.37
2024-02-28T21:11:14.490Z,45.07
2024-02-28T21:13:42.820Z,38.60
2024-02-28T21:16:09.851Z,50.83
2024-02-28T21:18:36.609Z,44.40
2024-02-28T21:21:05.713Z,32.47
2024-02-28T21:23:32.552Z,35.37
2024-02-28T21:25:59.403Z,32.20
2024-02-28T21:28:26.247Z,29.87
2024-02-28T21:30:54.780Z,40.10
2024-02-28T21:33:21.622Z,41.57
2024-02-28T21:35:48.544Z,36.03
2024-02-28T21:38:15.441Z,36.83
2024-02-28T21:40:42.225Z,41.00
2024-02-28T21:43:09.128Z,37.03
2024-02-28T21:45:36.031Z,38.07
2024-02-28T21:48:04.762Z,40.13
2024-02-28T21:50:31.732Z,35.80
2024-02-28T21:52:58.632Z,41.77
2024-02-28T21:55:25.703Z,36.23
2024-02-28T21:57:52.807Z,41.43
2024-02-28T22:00:20.073Z,40.07
2024-02-28T22:02:46.918Z,40.13
2024-02-28T22:05:15.321Z,47.53
2024-02-28T22:07:42.409Z,40.73
2024-02-28T22:10:09.738Z,38.40
2024-02-28T22:12:39.669Z,43.20
2024-02-28T22:15:08.100Z,43.03
2024-02-28T22:17:35.036Z,44.83
2024-02-28T22:20:05.185Z,38.20
2024-02-28T22:22:33.411Z,38.50
2024-02-28T22:25:00.473Z,44.60
2024-02-28T22:27:27.485Z,45.00
2024-02-28T22:29:56.111Z,37.27
2024-02-28T22:32:23.930Z,33.80
2024-02-28T22:34:50.995Z,40.30
2024-02-28T22:37:17.816Z,40.07
2024-02-28T22:39:51.144Z,35.57
2024-02-28T22:42:18.008Z,36.63
2024-02-28T22:44:45.106Z,40.90
2024-02-28T22:47:14.091Z,34.67
2024-02-28T22:49:40.850Z,39.27
2024-02-28T22:52:08.172Z,32.80
2024-02-28T22:54:35.937Z,35.83
2024-02-28T22:57:04.860Z,38.50
2024-02-28T22:59:31.780Z,34.47
2024-02-28T23:01:58.723Z,37.20
2024-02-28T23:04:25.583Z,36.73
2024-02-28T23:06:52.373Z,32.47
2024-02-28T23:09:19.304Z,35.57
2024-02-28T23:11:46.279Z,31.23
2024-02-28T23:14:14.580Z,30.07
2024-02-28T23:16:42.056Z,35.57
2024-02-28T23:19:20.277Z,35.93
2024-02-28T23:21:47.198Z,30.63
2024-02-28T23:24:14.086Z,31.30
2024-02-28T23:26:40.856Z,34.77
2024-02-28T23:29:07.785Z,29.67
2024-02-28T23:31:35.966Z,32.60
2024-02-28T23:34:02.818Z,35.90
2024-02-28T23:36:29.604Z,37.43
2024-02-28T23:38:56.333Z,36.10
2024-02-28T23:41:23.158Z,34.97
2024-02-28T23:43:49.924Z,36.20
2024-02-28T23:46:16.924Z,38.33
2024-02-28T23:51:36.104Z,36.53
2024-02-28T23:54:02.930Z,33.90
2024-02-28T23:56:29.629Z,28.20
2024-02-28T23:58:56.451Z,36.27
